Terminal Aerodrome Forecast
Issued by NWS Brownsville, TX

Home | Current Version | Previous Version | Text Only | Print | Product List | Glossary On
Versions: 1 2 3 4 5 6 7 8 9 10 11 12 13 14 15 16 17 18 19
000
FTUS44 KBRO 271504 AAA
TAFMFE
TAF AMD
KMFE 271504Z 2715/2812 16012KT P6SM SCT025
      TEMPO 2715/2716 BKN018
     FM271600 14012G20KT P6SM SCT050
     FM280000 14012KT P6SM SCT025=

USA.gov is the U.S. government's official web portal to all federal, state and local government web resources and services.